CheckWX is a tool to help pilots better visualize weather data.  It is not intended as a substitute for an official pre-flight weather briefing.

21:57:21 UTC

KLNP METAR
Lonesome Pine Airport
Wise, Virginia, USA
Current

22 mins ago

KLNP 232135Z AUTO 22012G16KT 10SM SCT046 SCT070 26/17 A3026 RMK AO2
Observed
May-23 @ 21:35 UTC
Wind
  • 220° at 12 KTS
  • Gusting to 16 KTS
Visibility
10 SM
Flight Rules
VFR
Cloud Levels
  • Scattered at 4,600' AGL
  • Scattered at 7,000' AGL
Temperature
26°C / 79°F
Dewpoint
17°C / 63°F
Humidity
58%
Altimeter
30.26" Hg
Pressure
1024.72 hPa
Previous

42 mins ago

KLNP 232115Z AUTO 23010KT 10SM SCT046 SCT055 27/17 A3026 RMK AO2
Observed
May-23 @ 21:15 UTC
Wind
  • 230° at 10 KTS
Visibility
10 SM
Flight Rules
VFR
Cloud Levels
  • Scattered at 4,600' AGL
  • Scattered at 5,500' AGL
Temperature
27°C / 81°F
Dewpoint
17°C / 63°F
Heat Index
28°C / 82°F
Humidity
54%
Altimeter
30.26" Hg
Pressure
1024.72 hPa
Previous

1 hour ago

KLNP 232055Z AUTO 21014KT 10SM CLR 27/17 A3026 RMK AO2
Observed
May-23 @ 20:55 UTC
Wind
  • 210° at 14 KTS
Visibility
10 SM
Flight Rules
VFR
Cloud Levels
  • Clear skies
Temperature
27°C / 81°F
Dewpoint
17°C / 63°F
Heat Index
28°C / 82°F
Humidity
54%
Altimeter
30.26" Hg
Pressure
1024.72 hPa